Time;durP1;ratioP1;P1;durP2;ratioP2;P2;SDS_P1;SDS_P2;PMS_P1;PMS_P2;Temp;Humidity;BMP_temperature;BMP_pressure;BME280_temperature;BME280_humidity;BME280_pressure;Samples;Min_cycle;Max_cycle;Signal;HPM_P1;HPM_P2
2023/12/01 00:01:43;;;;;;;41.53;24.10;;;;;;;-144.30;100.00;86641.09;5093361;28;20237;-75
2023/12/01 00:04:10;;;;;;;38.40;22.53;;;;;;;-144.30;100.00;86629.19;5092926;28;20220;-75
2023/12/01 00:06:37;;;;;;;43.97;23.50;;;;;;;-144.30;100.00;86676.91;5093337;28;20586;-76
2023/12/01 00:09:04;;;;;;;43.37;24.53;;;;;;;-144.30;100.00;86645.09;5093581;28;20190;-75
2023/12/01 00:11:31;;;;;;;39.43;24.13;;;;;;;-144.30;100.00;86682.88;5093342;28;20252;-75
2023/12/01 00:13:58;;;;;;;40.00;23.17;;;;;;;-144.30;100.00;86664.97;5092348;28;20207;-75
2023/12/01 00:16:26;;;;;;;43.73;25.00;;;;;;;-144.30;100.00;86664.97;5093152;28;20203;-75
2023/12/01 00:18:55;;;;;;;49.60;25.40;;;;;;;-144.30;100.00;86676.91;5093419;28;20234;-76
2023/12/01 00:21:22;;;;;;;42.23;25.03;;;;;;;-144.30;100.00;86684.84;5092928;28;20233;-74
2023/12/01 00:23:48;;;;;;;45.47;24.47;;;;;;;-144.30;100.00;86672.94;5092374;28;20187;-76
2023/12/01 00:26:15;;;;;;;45.80;24.73;;;;;;;-144.30;100.00;86645.09;5093176;28;20195;-76
2023/12/01 00:28:42;;;;;;;45.30;25.60;;;;;;;-144.30;100.00;86688.84;5093232;28;20236;-75
2023/12/01 00:31:09;;;;;;;42.73;24.57;;;;;;;-144.30;100.00;86525.75;5093404;28;20581;-74
2023/12/01 00:33:36;;;;;;;44.30;24.87;;;;;;;-144.30;100.00;86696.78;5092543;28;20203;-75
2023/12/01 00:36:05;;;;;;;49.53;25.57;;;;;;;-144.30;100.00;86653.03;5092937;28;20657;-75
2023/12/01 00:38:33;;;;;;;48.37;25.57;;;;;;;-144.30;100.00;86704.75;5092489;28;20203;-75
2023/12/01 00:40:59;;;;;;;44.53;24.97;;;;;;;-144.30;100.00;86678.88;5092600;28;20199;-75
2023/12/01 00:43:26;;;;;;;46.13;26.07;;;;;;;-144.30;100.00;86661.00;5093209;28;20645;-76
2023/12/01 00:45:53;;;;;;;50.53;27.43;;;;;;;-144.30;100.00;86684.84;5092274;28;20202;-76
2023/12/01 00:48:20;;;;;;;45.10;25.57;;;;;;;-144.30;100.00;86710.72;5092629;28;20245;-74
2023/12/01 00:50:47;;;;;;;46.53;25.67;;;;;;;-144.30;100.00;87311.34;5092217;28;20209;-75
2023/12/01 00:53:16;;;;;;;47.90;26.17;;;;;;;-144.30;100.00;86714.69;5092081;28;20295;-75
2023/12/01 00:55:42;;;;;;;47.70;26.60;;;;;;;-144.30;100.00;86680.88;5092061;28;20199;-75
2023/12/01 00:58:09;;;;;;;46.93;26.70;;;;;;;-144.30;100.00;86712.69;5092587;28;20210;-76
2023/12/01 01:00:36;;;;;;;49.87;25.30;;;;;;;-144.30;100.00;86694.81;5092654;28;20600;-76
2023/12/01 01:03:03;;;;;;;45.67;25.27;;;;;;;-144.30;100.00;86672.94;5092896;28;20206;-76
2023/12/01 01:05:30;;;;;;;42.93;24.13;;;;;;;-144.30;100.00;86688.84;5093938;28;20230;-77
2023/12/01 01:07:57;;;;;;;43.93;24.43;;;;;;;-144.30;100.00;86684.84;5093132;28;20286;-75
2023/12/01 01:10:26;;;;;;;43.10;24.87;;;;;;;-144.30;100.00;86661.00;5092680;28;20745;-75
2023/12/01 01:12:54;;;;;;;47.73;24.57;;;;;;;-144.30;100.00;86672.94;5092528;28;20652;-74
2023/12/01 01:15:21;;;;;;;41.77;23.50;;;;;;;-144.30;100.00;86676.91;5091906;28;20191;-75
2023/12/01 01:17:48;;;;;;;39.57;22.03;;;;;;;-144.30;100.00;86657.03;5092076;28;20562;-76
2023/12/01 01:20:14;;;;;;;40.43;23.60;;;;;;;-144.30;100.00;86635.13;5092507;28;20219;-75
2023/12/01 01:22:41;;;;;;;42.60;23.93;;;;;;;-144.30;100.00;86706.72;5091693;28;20298;-74
2023/12/01 01:25:09;;;;;;;43.43;23.63;;;;;;;-144.30;100.00;86706.72;5091250;28;20199;-75
2023/12/01 01:27:37;;;;;;;39.33;23.57;;;;;;;-144.30;100.00;86708.72;5091687;28;20195;-74
2023/12/01 01:30:05;;;;;;;41.23;22.73;;;;;;;-144.30;100.00;86702.75;5088495;28;20194;-75
2023/12/01 01:32:32;;;;;;;41.33;23.07;;;;;;;-144.30;100.00;86730.59;5092234;28;20226;-74
2023/12/01 01:34:59;;;;;;;42.27;23.63;;;;;;;-144.30;100.00;86674.91;5091984;28;20238;-75
2023/12/01 01:37:26;;;;;;;43.00;23.13;;;;;;;-144.30;100.00;86680.88;5092109;28;20196;-75
2023/12/01 01:39:53;;;;;;;39.03;21.97;;;;;;;-144.30;100.00;86676.91;5091318;28;20305;-74
2023/12/01 01:42:20;;;;;;;39.53;22.10;;;;;;;-144.30;100.00;86651.06;5091336;28;20199;-75
2023/12/01 01:44:48;;;;;;;42.10;22.40;;;;;;;-144.30;100.00;86680.88;5090922;28;20200;-74
2023/12/01 01:47:15;;;;;;;38.67;22.87;;;;;;;-144.30;100.00;86708.72;5091199;28;20677;-77
2023/12/01 01:49:43;;;;;;;36.17;21.10;;;;;;;-144.30;100.00;86678.88;5091738;28;20290;-74
2023/12/01 01:52:12;;;;;;;41.00;21.97;;;;;;;-144.30;100.00;86680.88;5091826;28;20697;-75
2023/12/01 01:54:40;;;;;;;40.97;22.13;;;;;;;-144.30;100.00;86684.84;5091994;28;20670;-74
2023/12/01 01:57:07;;;;;;;42.40;21.77;;;;;;;-144.30;100.00;86708.72;5091473;28;20298;-75
2023/12/01 01:59:34;;;;;;;39.90;22.70;;;;;;;-144.30;100.00;86708.72;5091750;28;20810;-75
2023/12/01 02:02:02;;;;;;;41.93;22.33;;;;;;;-144.30;100.00;86708.72;5091510;28;20199;-75
2023/12/01 02:04:29;;;;;;;43.73;21.87;;;;;;;-144.30;100.00;86700.78;5091485;28;20786;-75
2023/12/01 02:06:56;;;;;;;39.93;23.40;;;;;;;-144.30;100.00;86718.66;5091300;28;20199;-74
2023/12/01 02:09:23;;;;;;;38.30;21.57;;;;;;;-144.30;100.00;86672.94;5091333;28;20219;-75
2023/12/01 02:11:50;;;;;;;41.10;21.97;;;;;;;-144.30;100.00;86955.31;5091750;28;20200;-76
2023/12/01 02:14:17;;;;;;;39.00;22.20;;;;;;;-144.30;100.00;86720.66;5091104;28;20336;-75
2023/12/01 02:16:46;;;;;;;42.13;22.33;;;;;;;-144.30;100.00;86722.66;5090601;28;20230;-75
2023/12/01 02:19:15;;;;;;;41.50;22.23;;;;;;;-144.30;100.00;86613.28;5091222;28;20268;-76
2023/12/01 02:21:45;;;;;;;45.53;22.03;;;;;;;-144.30;100.00;86690.81;5091214;28;20196;-74
2023/12/01 02:24:13;;;;;;;37.50;20.40;;;;;;;-144.30;100.00;86688.84;5090756;28;20191;-74
2023/12/01 02:26:40;;;;;;;32.40;20.73;;;;;;;-144.30;100.00;86688.84;5090722;28;20199;-75
2023/12/01 02:29:07;;;;;;;37.93;21.63;;;;;;;-144.30;100.00;86400.50;5090613;28;20295;-75
2023/12/01 02:31:34;;;;;;;33.17;20.27;;;;;;;-144.30;100.00;86728.59;5091344;28;20213;-75
2023/12/01 02:34:01;;;;;;;34.67;21.13;;;;;;;-144.30;100.00;86790.25;5090154;28;20199;-75
2023/12/01 02:36:28;;;;;;;32.37;19.93;;;;;;;-144.30;100.00;86694.81;5091022;28;20195;-75
2023/12/01 02:38:57;;;;;;;35.20;19.20;;;;;;;-144.30;100.00;86706.72;5094733;28;20199;-75
2023/12/01 02:41:24;;;;;;;33.80;20.33;;;;;;;-144.30;100.00;86661.00;5095248;28;20226;-75
2023/12/01 02:43:50;;;;;;;37.90;20.73;;;;;;;-144.30;100.00;86704.75;5094930;28;20683;-76
2023/12/01 02:46:22;;;;;;;35.37;20.03;;;;;;;-144.30;100.00;87170.13;5095407;28;20195;-77
2023/12/01 02:48:49;;;;;;;30.20;18.17;;;;;;;-144.30;100.00;86700.78;5095483;28;20650;-77
2023/12/01 02:51:16;;;;;;;30.53;18.77;;;;;;;-144.30;100.00;86708.72;5095486;28;20291;-77
2023/12/01 02:53:43;;;;;;;30.70;19.00;;;;;;;-144.30;100.00;86708.72;5095569;28;20215;-78
2023/12/01 02:56:12;;;;;;;34.47;19.23;;;;;;;-144.30;100.00;86732.59;5095515;28;20193;-78
2023/12/01 02:58:39;;;;;;;35.23;19.73;;;;;;;-144.30;100.00;86694.81;5095389;28;20625;-77
2023/12/01 03:01:06;;;;;;;31.50;19.03;;;;;;;-144.30;100.00;86734.56;5095274;28;20225;-77
2023/12/01 03:03:33;;;;;;;32.13;19.57;;;;;;;-144.30;100.00;86696.78;5096237;28;20790;-76
2023/12/01 03:06:00;;;;;;;30.17;18.10;;;;;;;-144.30;100.00;86692.81;5095631;28;20210;-77
2023/12/01 03:08:27;;;;;;;31.93;19.30;;;;;;;-144.30;100.00;86730.59;5095728;28;20277;-77
2023/12/01 03:10:55;;;;;;;31.60;19.23;;;;;;;-144.30;100.00;86700.78;5095652;28;20198;-76
2023/12/01 03:13:23;;;;;;;35.30;19.60;;;;;;;-144.30;100.00;86740.53;5095886;28;20225;-76
2023/12/01 03:15:51;;;;;;;31.67;20.33;;;;;;;-144.30;100.00;86712.69;5095816;28;20200;-77
2023/12/01 03:18:19;;;;;;;33.30;20.73;;;;;;;-144.30;100.00;86696.78;5095272;28;20209;-76
2023/12/01 03:20:46;;;;;;;35.50;20.03;;;;;;;-144.30;100.00;86712.69;5095543;28;20219;-77
2023/12/01 03:23:13;;;;;;;34.87;20.03;;;;;;;-144.30;100.00;86718.66;5095984;28;20199;-77
2023/12/01 03:25:40;;;;;;;31.73;19.87;;;;;;;-144.30;100.00;86716.69;5095092;28;20206;-77
2023/12/01 03:28:06;;;;;;;34.63;19.97;;;;;;;-144.30;100.00;86720.66;5094733;28;20195;-77
2023/12/01 03:30:35;;;;;;;31.10;18.03;;;;;;;-144.30;100.00;86657.03;5094960;28;20298;-78
2023/12/01 03:33:02;;;;;;;29.17;17.83;;;;;;;-144.30;100.00;86657.03;5094866;28;20207;-77
2023/12/01 03:35:29;;;;;;;31.80;21.30;;;;;;;-144.30;100.00;86712.69;5094314;28;20282;-77
2023/12/01 03:37:57;;;;;;;32.97;20.40;;;;;;;-144.30;100.00;86611.28;5094339;28;20199;-76
2023/12/01 03:40:25;;;;;;;28.47;17.90;;;;;;;-144.30;100.00;86643.09;5094277;28;20327;-77
2023/12/01 03:42:52;;;;;;;30.47;18.40;;;;;;;-144.30;100.00;86706.72;5094334;28;20271;-77
2023/12/01 03:45:19;;;;;;;27.77;17.67;;;;;;;-144.30;100.00;86722.66;5094657;28;20199;-77
2023/12/01 03:47:49;;;;;;;30.33;17.40;;;;;;;-144.30;100.00;86672.94;5093676;28;20591;-78
2023/12/01 03:50:18;;;;;;;28.03;17.30;;;;;;;-144.30;100.00;86710.72;5094574;28;20192;-76
2023/12/01 03:52:46;;;;;;;31.33;18.03;;;;;;;-144.30;100.00;86668.94;5094622;28;20199;-77
2023/12/01 03:55:14;;;;;;;27.70;17.80;;;;;;;-144.30;100.00;86692.81;5093912;28;20202;-76
2023/12/01 03:57:43;;;;;;;30.50;17.27;;;;;;;-144.30;100.00;86662.97;5095139;28;20227;-77
2023/12/01 04:00:13;;;;;;;29.17;17.17;;;;;;;-144.30;100.00;86382.59;5093803;28;20301;-75
2023/12/01 04:02:41;;;;;;;24.67;16.00;;;;;;;-144.30;100.00;86666.97;5093613;28;20191;-76
2023/12/01 04:05:17;;;;;;;29.37;16.50;;;;;;;-144.30;100.00;86716.69;5092725;28;20690;-77
2023/12/01 04:07:45;;;;;;;27.87;16.00;;;;;;;-144.30;100.00;86688.84;5094028;28;20201;-76
2023/12/01 04:10:12;;;;;;;30.10;17.03;;;;;;;-144.30;100.00;86601.34;5094560;28;20549;-75
2023/12/01 04:12:44;;;;;;;27.13;16.27;;;;;;;-144.30;100.00;86694.81;5093458;28;20195;-75
2023/12/01 04:15:14;;;;;;;28.93;16.87;;;;;;;-144.30;100.00;86617.25;5093145;28;20195;-76
2023/12/01 04:17:42;;;;;;;27.03;16.27;;;;;;;-144.30;100.00;86692.81;5093317;28;20202;-76
2023/12/01 04:20:21;;;;;;;25.23;16.27;;;;;;;-144.30;100.00;86700.78;5093276;28;20215;-76
2023/12/01 04:22:49;;;;;;;32.17;16.47;;;;;;;-144.30;100.00;86899.66;5093172;28;20573;-76
2023/12/01 04:25:16;;;;;;;28.73;16.67;;;;;;;-144.30;100.00;86651.06;5093339;28;20195;-75
2023/12/01 04:27:43;;;;;;;31.43;18.07;;;;;;;-144.30;100.00;86742.53;5093315;28;20195;-76
2023/12/01 04:30:14;;;;;;;32.23;18.50;;;;;;;-144.30;100.00;86684.84;5092955;28;20191;-76
2023/12/01 04:32:41;;;;;;;27.97;17.27;;;;;;;-144.30;100.00;86678.88;5093644;28;20196;-75
2023/12/01 04:35:10;;;;;;;32.80;19.00;;;;;;;-144.30;100.00;86700.78;5093414;28;20206;-76
2023/12/01 04:37:40;;;;;;;29.97;18.23;;;;;;;-144.30;100.00;86706.72;5093033;28;20199;-76
2023/12/01 04:40:14;;;;;;;31.13;18.10;;;;;;;-144.30;100.00;86686.84;5092097;28;20230;-75
2023/12/01 04:42:43;;;;;;;37.27;20.40;;;;;;;-144.30;100.00;86478.03;5093033;28;20241;-76
2023/12/01 04:45:11;;;;;;;48.50;24.43;;;;;;;-144.30;100.00;86692.81;5092354;28;20195;-75
2023/12/01 04:47:40;;;;;;;42.27;21.77;;;;;;;-144.30;100.00;86732.59;5092743;28;20272;-77
2023/12/01 04:50:12;;;;;;;37.90;20.47;;;;;;;-144.30;100.00;86692.81;5092681;28;20330;-76
2023/12/01 04:52:42;;;;;;;33.67;18.57;;;;;;;-144.30;100.00;86736.56;5092958;28;20198;-78
2023/12/01 04:55:11;;;;;;;33.67;19.73;;;;;;;-144.30;100.00;86710.72;5092271;28;20257;-75
2023/12/01 04:57:38;;;;;;;32.80;19.50;;;;;;;-144.30;100.00;86696.78;5092799;28;20559;-75
2023/12/01 05:00:18;;;;;;;33.37;18.77;;;;;;;-144.30;100.00;87078.63;5091712;28;20273;-74
2023/12/01 05:02:47;;;;;;;33.77;18.73;;;;;;;-144.30;100.00;86712.69;5092316;28;20210;-75
2023/12/01 05:05:15;;;;;;;33.07;18.33;;;;;;;-144.30;100.00;86752.47;5092294;28;20235;-76
2023/12/01 05:07:43;;;;;;;28.70;18.83;;;;;;;-144.30;100.00;86708.72;5092089;28;20713;-75
2023/12/01 05:10:14;;;;;;;37.93;19.23;;;;;;;-144.30;100.00;86645.09;5091744;28;20211;-75
2023/12/01 05:12:45;;;;;;;27.43;17.60;;;;;;;-144.30;100.00;86720.66;5091711;28;20199;-76
2023/12/01 05:15:16;;;;;;;28.37;18.27;;;;;;;-144.30;100.00;86686.84;5092237;28;20591;-75
2023/12/01 05:17:48;;;;;;;29.83;17.27;;;;;;;-144.30;100.00;86702.75;5091602;28;20659;-75
2023/12/01 05:20:18;;;;;;;31.20;16.47;;;;;;;-144.30;100.00;86700.78;5091470;28;20311;-75
2023/12/01 05:22:48;;;;;;;25.53;15.30;;;;;;;-144.30;100.00;86690.81;5091122;28;20662;-75
2023/12/01 05:25:17;;;;;;;24.87;15.30;;;;;;;-144.30;100.00;86700.78;5090919;28;20198;-75
2023/12/01 05:27:46;;;;;;;27.00;15.50;;;;;;;-144.30;100.00;86716.69;5091582;28;20603;-75
2023/12/01 05:30:14;;;;;;;26.23;15.73;;;;;;;-144.30;100.00;86692.81;5091248;28;20681;-75
2023/12/01 05:32:42;;;;;;;24.57;15.27;;;;;;;-144.30;100.00;86728.59;5091881;28;20667;-75
2023/12/01 05:35:11;;;;;;;21.60;14.90;;;;;;;-144.30;100.00;86690.81;5091951;28;20273;-75
2023/12/01 05:37:39;;;;;;;25.70;14.63;;;;;;;-144.30;100.00;86714.69;5092194;28;20592;-75
2023/12/01 05:40:10;;;;;;;25.13;15.00;;;;;;;-144.30;100.00;86458.16;5091613;28;20253;-75
2023/12/01 05:42:37;;;;;;;27.23;15.13;;;;;;;-144.30;99.93;86686.84;5092041;28;20191;-75
2023/12/01 05:45:06;;;;;;;23.37;14.43;;;;;;;-144.30;99.88;86688.84;5091725;28;20205;-75
2023/12/01 05:47:33;;;;;;;26.80;15.83;;;;;;;-144.30;99.99;86692.81;5091872;28;20199;-75
2023/12/01 05:49:59;;;;;;;24.37;14.17;;;;;;;-144.30;99.78;86680.88;5091660;28;20203;-75
2023/12/01 05:52:26;;;;;;;23.67;14.87;;;;;;;-144.30;99.76;86700.78;5091370;28;20221;-75
2023/12/01 05:54:53;;;;;;;22.87;14.37;;;;;;;-144.30;99.78;86623.22;5091352;28;20191;-75
2023/12/01 05:57:22;;;;;;;24.10;14.90;;;;;;;-144.30;100.00;86716.69;5091633;28;20191;-76
2023/12/01 05:59:49;;;;;;;21.37;14.20;;;;;;;-144.30;100.00;86668.94;5091079;28;20691;-79
2023/12/01 06:02:16;;;;;;;21.43;14.83;;;;;;;-144.30;100.00;86740.53;5092851;28;20468;-81
2023/12/01 06:04:43;;;;;;;22.90;14.77;;;;;;;-144.30;100.00;86666.97;5093890;28;20209;-79
2023/12/01 06:07:10;;;;;;;23.27;13.87;;;;;;;-144.30;100.00;86672.94;5092071;28;20199;-78
2023/12/01 06:09:37;;;;;;;22.27;13.83;;;;;;;-144.30;100.00;86704.75;5093775;28;20198;-83
2023/12/01 06:12:05;;;;;;;21.20;13.33;;;;;;;-144.30;100.00;86442.25;5099761;28;20222;-86
2023/12/01 06:14:34;;;;;;;25.53;14.83;;;;;;;-144.30;100.00;86633.16;5102796;28;20194;-81
2023/12/01 06:17:00;;;;;;;25.33;14.50;;;;;;;-144.30;100.00;86581.44;5104000;28;20336;-89
2023/12/01 06:19:28;;;;;;;23.37;15.10;;;;;;;-144.30;100.00;86676.91;5102097;28;20639;-76
2023/12/01 06:21:57;;;;;;;25.00;15.30;;;;;;;-144.30;100.00;86700.78;5101544;28;20222;-76
2023/12/01 06:24:25;;;;;;;27.13;16.30;;;;;;;-144.30;100.00;86666.97;5100306;28;20194;-84
2023/12/01 06:26:52;;;;;;;30.70;15.53;;;;;;;-144.30;100.00;86714.69;5101833;28;20222;-82
2023/12/01 06:29:19;;;;;;;25.50;15.40;;;;;;;-144.30;100.00;86655.03;5101046;28;20199;-80
2023/12/01 06:31:49;;;;;;;22.90;16.13;;;;;;;-144.30;100.00;86344.81;5101261;28;20569;-84
2023/12/01 06:34:19;;;;;;;23.87;15.30;;;;;;;-144.30;100.00;86704.75;5102297;28;20195;-84
2023/12/01 06:36:46;;;;;;;25.93;16.77;;;;;;;-144.30;99.26;86661.00;5104267;28;20199;-84
2023/12/01 06:39:13;;;;;;;25.50;16.07;;;;;;;-144.30;100.00;86672.94;5101721;28;20653;-83
2023/12/01 06:41:41;;;;;;;23.20;15.70;;;;;;;-144.30;100.00;86567.53;5101216;28;20222;-80
2023/12/01 06:44:10;;;;;;;25.10;15.97;;;;;;;-144.30;99.26;86657.03;5099037;28;20199;-79
2023/12/01 06:46:39;;;;;;;25.90;16.20;;;;;;;-144.30;99.60;86682.88;5098282;28;20252;-77
2023/12/01 06:49:07;;;;;;;26.33;16.53;;;;;;;-144.30;100.00;86587.41;5099058;28;20246;-76
2023/12/01 06:51:34;;;;;;;26.10;16.47;;;;;;;-144.30;99.96;86672.94;5098551;28;20270;-77
2023/12/01 06:54:01;;;;;;;28.77;15.33;;;;;;;-144.30;99.77;86653.03;5098351;28;20205;-77
2023/12/01 06:56:28;;;;;;;22.17;14.70;;;;;;;-144.30;99.40;86657.03;5098034;28;20234;-78
2023/12/01 06:58:55;;;;;;;25.63;14.73;;;;;;;-144.30;99.33;86676.91;5098476;28;20199;-76
2023/12/01 07:01:22;;;;;;;22.50;14.30;;;;;;;-144.30;98.55;86790.25;5097248;28;20213;-77
2023/12/01 07:03:49;;;;;;;23.27;14.87;;;;;;;-144.30;98.02;86633.16;5098547;28;20296;-77
2023/12/01 07:06:17;;;;;;;25.10;15.13;;;;;;;-144.30;97.53;87054.78;5099045;28;20683;-76
2023/12/01 07:08:44;;;;;;;22.40;14.60;;;;;;;-144.30;97.19;86659.00;5099206;28;20189;-77
2023/12/01 07:11:11;;;;;;;22.23;14.03;;;;;;;-144.30;97.12;87164.16;5098807;28;20196;-78
2023/12/01 07:13:38;;;;;;;23.57;14.10;;;;;;;-144.30;97.12;86645.09;5102005;28;20191;-81
2023/12/01 07:16:10;;;;;;;22.47;13.97;;;;;;;-144.30;96.48;86641.09;5100231;28;20214;-80
2023/12/01 07:18:40;;;;;;;31.10;14.93;;;;;;;-144.30;96.73;86609.28;5097693;28;20195;-77
2023/12/01 07:21:07;;;;;;;25.47;15.83;;;;;;;-144.30;96.44;86613.28;5098279;28;20237;-77
2023/12/01 07:23:36;;;;;;;30.30;17.03;;;;;;;-144.30;95.96;86627.19;5095484;28;20686;-78
2023/12/01 07:26:03;;;;;;;26.10;15.47;;;;;;;-144.30;95.89;86601.34;5094419;28;20203;-75
2023/12/01 07:28:30;;;;;;;25.70;16.37;;;;;;;-144.30;96.20;86609.28;5094055;28;20651;-75
2023/12/01 07:30:59;;;;;;;27.13;17.07;;;;;;;-144.30;96.17;86460.16;5093834;28;20196;-76
2023/12/01 07:33:27;;;;;;;31.93;17.30;;;;;;;-144.30;96.11;86575.47;5095320;28;20204;-79
2023/12/01 07:35:57;;;;;;;25.13;16.77;;;;;;;-144.30;95.08;86603.31;5094906;28;20587;-78
2023/12/01 07:38:24;;;;;;;28.73;17.10;;;;;;;-144.30;95.57;86557.59;5097074;28;20196;-77
2023/12/01 07:40:54;;;;;;;26.17;16.27;;;;;;;-144.30;94.38;86529.75;5095339;28;20229;-81
2023/12/01 07:43:22;;;;;;;25.17;17.43;;;;;;;-144.30;93.85;86573.50;5095147;28;20254;-80
2023/12/01 07:45:49;;;;;;;26.47;17.30;;;;;;;-144.30;92.69;87122.41;5095732;28;20209;-79
2023/12/01 07:48:14;;;;;;;32.47;17.30;;;;;;;-144.30;91.89;86436.28;5095417;28;20187;-78
2023/12/01 07:50:41;;;;;;;34.43;17.93;;;;;;;-144.30;91.61;86533.72;5094997;28;20196;-80
2023/12/01 07:53:08;;;;;;;29.03;17.27;;;;;;;-144.30;91.99;86551.63;5095222;28;20281;-79
2023/12/01 07:55:35;;;;;;;28.30;19.33;;;;;;;-144.30;92.06;86563.56;5095498;28;20188;-80
2023/12/01 07:58:04;;;;;;;33.83;17.97;;;;;;;-144.30;92.36;86563.56;5095946;28;20226;-77
2023/12/01 08:00:31;;;;;;;28.87;16.47;;;;;;;-144.30;92.84;86545.66;5088906;28;20571;-81
2023/12/01 08:02:58;;;;;;;27.90;16.73;;;;;;;-144.30;93.09;86513.84;5093684;28;20251;-79
2023/12/01 08:05:26;;;;;;;25.63;16.63;;;;;;;-144.30;92.35;86561.56;5094483;28;20263;-79
2023/12/01 08:07:54;;;;;;;24.87;15.27;;;;;;;-144.30;91.96;86493.94;5094770;28;20201;-80
2023/12/01 08:10:22;;;;;;;20.57;13.97;;;;;;;-144.30;91.87;86523.78;5095604;28;20222;-77
2023/12/01 08:12:50;;;;;;;25.07;16.07;;;;;;;-144.30;90.86;86529.75;5093984;28;21216;-79
2023/12/01 08:15:19;;;;;;;22.10;14.10;;;;;;;-144.30;91.09;86470.09;5094614;28;20215;-78
2023/12/01 08:17:46;;;;;;;22.57;14.73;;;;;;;-144.30;90.36;86505.88;5093421;28;20202;-79
2023/12/01 08:20:14;;;;;;;27.60;14.97;;;;;;;-144.30;90.94;86513.84;5092530;28;20199;-77
2023/12/01 08:22:43;;;;;;;20.23;14.50;;;;;;;-144.30;90.64;86466.09;5093250;28;20212;-79
2023/12/01 08:25:10;;;;;;;23.70;13.90;;;;;;;-144.30;91.22;86527.75;5094675;28;20203;-79
2023/12/01 08:27:39;;;;;;;23.97;15.37;;;;;;;-144.30;90.84;86474.06;5093667;28;20205;-78
2023/12/01 08:30:07;;;;;;;23.77;16.37;;;;;;;-144.30;90.18;86491.97;5093741;28;20257;-77
2023/12/01 08:32:36;;;;;;;22.77;14.43;;;;;;;-144.30;89.99;86533.72;5093631;28;20206;-78
2023/12/01 08:35:03;;;;;;;22.60;15.50;;;;;;;-144.30;89.93;86434.28;5091885;28;20266;-78
2023/12/01 08:37:30;;;;;;;20.90;14.73;;;;;;;-144.30;90.12;86517.81;5094192;28;20195;-78
2023/12/01 08:39:57;;;;;;;25.30;15.50;;;;;;;-144.30;90.31;86527.75;5092503;28;20195;-78
2023/12/01 08:42:24;;;;;;;26.70;15.23;;;;;;;-144.30;90.08;86444.22;5093433;28;20990;-76
2023/12/01 08:44:51;;;;;;;24.00;15.50;;;;;;;-144.30;89.98;86458.16;5094411;28;20303;-79
2023/12/01 08:47:21;;;;;;;26.50;15.37;;;;;;;-144.30;89.82;86497.94;5092511;28;20341;-79
2023/12/01 08:49:50;;;;;;;25.27;15.23;;;;;;;-144.30;89.61;86464.13;5093316;28;20195;-78
2023/12/01 08:52:18;;;;;;;20.43;13.83;;;;;;;-144.30;89.38;86478.03;5092791;28;20221;-79
2023/12/01 08:54:45;;;;;;;22.60;15.07;;;;;;;-144.30;89.39;86458.16;5092719;28;20207;-78
2023/12/01 08:57:11;;;;;;;19.50;14.10;;;;;;;-144.30;88.66;86462.13;5092570;28;20199;-76
2023/12/01 08:59:38;;;;;;;21.33;13.67;;;;;;;-144.30;88.67;86426.34;5092522;28;20199;-76
2023/12/01 09:02:06;;;;;;;20.23;13.97;;;;;;;-144.30;88.47;87038.88;5092042;28;20309;-75
2023/12/01 09:04:33;;;;;;;25.30;13.67;;;;;;;-144.30;88.35;86434.28;5091992;28;20223;-76
2023/12/01 09:07:01;;;;;;;21.53;13.20;;;;;;;-144.30;88.25;86408.44;5092161;28;20199;-77
2023/12/01 09:09:28;;;;;;;24.73;13.87;;;;;;;-144.30;87.70;86390.53;5092234;28;20201;-77
2023/12/01 09:11:55;;;;;;;26.30;13.23;;;;;;;-144.30;87.00;86372.66;5091547;28;20187;-77
2023/12/01 09:14:22;;;;;;;20.80;13.03;;;;;;;-144.30;87.30;86330.88;5091543;28;20202;-75
2023/12/01 09:16:49;;;;;;;21.57;14.13;;;;;;;-144.30;85.98;86396.50;5091917;28;20738;-76
2023/12/01 09:19:16;;;;;;;26.73;14.60;;;;;;;-144.30;85.89;86261.28;5091831;28;20287;-75
2023/12/01 09:21:43;;;;;;;25.30;15.27;;;;;;;-144.30;85.91;86354.75;5091918;28;20223;-76
2023/12/01 09:24:12;;;;;;;29.43;16.57;;;;;;;-144.30;85.36;86322.94;5091718;28;20557;-76
2023/12/01 09:26:39;;;;;;;25.60;15.23;;;;;;;-144.30;84.60;86322.94;5091501;28;20199;-76
2023/12/01 09:29:06;;;;;;;30.40;16.73;;;;;;;-144.30;84.92;86283.16;5090982;28;20269;-77
2023/12/01 09:31:32;;;;;;;24.70;15.43;;;;;;;-144.30;84.64;86370.66;5092648;28;20226;-76
2023/12/01 09:33:59;;;;;;;27.27;15.63;;;;;;;-144.30;83.95;86271.25;5092395;28;20199;-77
2023/12/01 09:36:27;;;;;;;28.93;16.60;;;;;;;-144.30;83.51;86309.03;5092379;28;20280;-77
2023/12/01 09:38:54;;;;;;;25.93;15.53;;;;;;;-144.30;83.05;86299.06;5092183;28;20663;-76
2023/12/01 09:41:23;;;;;;;26.43;15.13;;;;;;;-144.30;83.13;86352.75;5087666;28;20205;-75
2023/12/01 09:43:50;;;;;;;24.53;14.27;;;;;;;-144.30;82.52;86299.06;5091376;28;20195;-75
2023/12/01 09:46:19;;;;;;;24.83;14.17;;;;;;;-144.30;82.26;86211.59;5091427;28;20595;-75
2023/12/01 09:48:50;;;;;;;21.97;14.23;;;;;;;-144.30;81.57;86227.50;5090988;28;20199;-75
2023/12/01 09:51:17;;;;;;;22.70;13.63;;;;;;;-144.30;81.84;86263.28;5091420;28;20238;-76
2023/12/01 09:53:44;;;;;;;17.83;12.50;;;;;;;-144.30;81.86;86229.47;5091211;28;20429;-76
2023/12/01 09:56:12;;;;;;;18.07;12.47;;;;;;;-144.30;81.91;86269.25;5090964;28;20195;-77
2023/12/01 09:58:43;;;;;;;20.33;14.47;;;;;;;-144.30;81.57;86239.44;5091338;28;20260;-75
2023/12/01 10:01:11;;;;;;;23.20;14.40;;;;;;;-144.30;81.31;86277.19;5090640;28;20290;-77
2023/12/01 10:03:38;;;;;;;25.60;15.73;;;;;;;-144.30;81.77;86311.00;5091629;28;20239;-78
2023/12/01 10:06:10;;;;;;;22.03;15.13;;;;;;;-144.30;81.98;86219.53;5091093;28;20199;-79
2023/12/01 10:08:37;;;;;;;25.63;17.20;;;;;;;-144.30;82.24;86326.91;5091685;28;20191;-79
2023/12/01 10:11:19;;;;;;;26.30;17.97;;;;;;;-144.30;82.41;86253.34;5093376;28;20203;-82
2023/12/01 10:13:51;;;;;;;30.03;18.60;;;;;;;-144.30;82.11;86249.38;5094594;28;20644;-80
2023/12/01 10:16:18;;;;;;;31.30;18.20;;;;;;;-144.30;82.69;86235.44;5093453;28;20218;-79
2023/12/01 10:18:58;;;;;;;26.50;16.80;;;;;;;-144.30;82.84;86237.44;5094378;28;20202;-78
2023/12/01 10:21:42;;;;;;;25.50;16.80;;;;;;;-144.30;83.05;86249.38;5093089;28;20233;-82
2023/12/01 10:24:14;;;;;;;28.53;16.77;;;;;;;-144.30;82.84;86275.22;5093009;28;20281;-79
2023/12/01 10:26:42;;;;;;;24.13;16.57;;;;;;;-144.30;83.29;86237.44;5094208;28;20198;-81
2023/12/01 10:29:28;;;;;;;23.97;16.37;;;;;;;-144.30;83.04;86215.56;5093449;28;20252;-80
2023/12/01 10:31:56;;;;;;;25.37;16.73;;;;;;;-144.30;83.22;86249.38;5091978;28;20230;-78
2023/12/01 10:34:24;;;;;;;24.27;16.03;;;;;;;-144.30;83.41;86267.25;5094294;28;20203;-81
2023/12/01 10:36:52;;;;;;;22.50;15.30;;;;;;;-144.30;83.37;86118.13;5091372;28;20192;-79
2023/12/01 10:39:20;;;;;;;22.57;15.77;;;;;;;-144.30;83.29;86271.25;5091767;28;20196;-81
2023/12/01 10:41:48;;;;;;;25.40;16.93;;;;;;;-144.30;83.97;86233.47;5092310;28;20204;-80
2023/12/01 10:44:16;;;;;;;30.57;15.97;;;;;;;-144.30;83.74;86249.38;5093311;28;20716;-83
2023/12/01 10:46:47;;;;;;;27.67;16.23;;;;;;;-144.30;83.22;86255.34;5092955;28;20575;-77
2023/12/01 10:49:17;;;;;;;23.57;15.80;;;;;;;-144.30;83.69;86267.25;5089647;28;20215;-79
2023/12/01 10:51:45;;;;;;;27.57;17.03;;;;;;;-144.30;83.58;86269.25;5093069;28;20187;-79
2023/12/01 10:54:13;;;;;;;34.30;19.07;;;;;;;-144.30;83.83;86247.38;5087026;28;20615;-81
2023/12/01 10:56:58;;;;;;;27.60;16.83;;;;;;;-144.30;84.02;86207.59;5092101;28;20635;-79
2023/12/01 10:59:27;;;;;;;24.43;16.97;;;;;;;-144.30;85.58;86314.97;5096080;28;20577;-83
2023/12/01 11:01:56;;;;;;;24.27;16.23;;;;;;;-144.30;86.05;86281.19;5098303;28;20213;-86